Time;durP1;ratioP1;P1;durP2;ratioP2;P2;SDS_P1;SDS_P2;PMS_P1;PMS_P2;Temp;Humidity;BMP_temperature;BMP_pressure;BME280_temperature;BME280_humidity;BME280_pressure;Samples;Min_cycle;Max_cycle;Signal;HPM_P1;HPM_P2
2021/12/30 00:02:25;;;;;;;11.93;3.28;;;14.30;99.90;;;;;;5094871;28;20543;-61
2021/12/30 00:04:51;;;;;;;16.13;3.85;;;14.30;99.90;;;;;;5095082;28;20196;-60
2021/12/30 00:07:16;;;;;;;12.18;3.22;;;14.40;99.90;;;;;;5076379;28;20173;-61
2021/12/30 00:09:42;;;;;;;12.57;3.58;;;14.40;99.90;;;;;;5094330;28;20634;-60
2021/12/30 00:12:08;;;;;;;10.50;3.22;;;14.50;99.90;;;;;;5076845;28;20295;-61
2021/12/30 00:14:34;;;;;;;18.35;4.22;;;14.60;99.90;;;;;;5094779;28;20185;-61
2021/12/30 00:17:00;;;;;;;8.55;3.67;;;14.50;99.90;;;;;;5065408;28;20727;-61
2021/12/30 00:19:26;;;;;;;8.85;3.60;;;14.60;99.90;;;;;;5083900;28;20180;-61
2021/12/30 00:21:51;;;;;;;7.13;3.00;;;14.50;99.90;;;;;;5075368;28;20192;-60
2021/12/30 00:24:18;;;;;;;6.88;3.25;;;14.50;99.90;;;;;;5076868;28;20271;-60
2021/12/30 00:26:43;;;;;;;11.05;2.75;;;14.40;99.90;;;;;;5093478;28;20189;-61
2021/12/30 00:29:09;;;;;;;7.90;3.25;;;14.50;99.90;;;;;;5076931;28;20240;-61
2021/12/30 00:31:35;;;;;;;12.82;3.38;;;14.60;99.90;;;;;;5093547;28;20278;-60
2021/12/30 00:34:01;;;;;;;9.43;3.35;;;14.60;99.90;;;;;;5093782;28;20232;-61
2021/12/30 00:36:26;;;;;;;10.95;3.90;;;14.60;99.90;;;;;;5094208;28;20195;-61
2021/12/30 00:38:52;;;;;;;12.98;3.35;;;14.60;99.90;;;;;;5094107;28;20614;-61
2021/12/30 00:41:19;;;;;;;10.75;3.55;;;14.50;99.90;;;;;;5094234;28;20287;-60
2021/12/30 00:43:45;;;;;;;8.55;2.97;;;14.60;99.90;;;;;;5093156;28;20197;-61
2021/12/30 00:46:11;;;;;;;9.98;3.20;;;14.60;99.90;;;;;;5076008;28;20717;-60
2021/12/30 00:48:38;;;;;;;7.43;2.20;;;14.70;99.90;;;;;;5094289;28;20204;-60
2021/12/30 00:51:05;;;;;;;5.40;2.20;;;14.80;99.90;;;;;;5075712;28;20296;-61
2021/12/30 00:53:31;;;;;;;5.65;3.10;;;14.70;99.90;;;;;;5093562;28;20188;-61
2021/12/30 00:55:57;;;;;;;5.80;2.35;;;14.70;99.90;;;;;;5093279;28;20227;-61
2021/12/30 00:58:23;;;;;;;5.78;2.35;;;14.80;99.90;;;;;;5061751;28;20684;-60
2021/12/30 01:00:49;;;;;;;4.70;2.10;;;14.80;99.90;;;;;;5092610;28;20209;-60
2021/12/30 01:03:15;;;;;;;3.75;2.33;;;14.70;99.90;;;;;;5075460;28;20211;-60
2021/12/30 01:05:43;;;;;;;6.47;2.65;;;14.70;99.90;;;;;;5074822;28;20531;-60
2021/12/30 01:08:09;;;;;;;2.55;1.77;;;14.70;99.90;;;;;;5075347;28;20177;-61
2021/12/30 01:10:35;;;;;;;5.22;1.42;;;14.70;99.90;;;;;;5074216;28;20200;-60
2021/12/30 01:13:05;;;;;;;2.25;2.05;;;14.80;99.90;;;;;;5093722;28;20180;-61
2021/12/30 01:15:45;;;;;;;7.93;2.35;;;14.80;99.90;;;;;;5093516;28;20189;-60
2021/12/30 01:18:29;;;;;;;1.38;1.27;;;14.70;99.90;;;;;;5093472;28;20211;-60
2021/12/30 01:20:55;;;;;;;2.55;1.80;;;14.70;99.90;;;;;;5077888;28;20184;-60
2021/12/30 01:23:22;;;;;;;3.30;2.22;;;14.70;99.90;;;;;;5093643;28;20188;-60
2021/12/30 01:25:48;;;;;;;2.00;1.35;;;14.70;99.90;;;;;;5066563;28;20231;-60
2021/12/30 01:28:14;;;;;;;1.42;1.15;;;14.80;99.90;;;;;;5085627;28;20188;-64
2021/12/30 01:30:40;;;;;;;3.28;1.60;;;14.60;99.90;;;;;;5092783;28;20184;-61
2021/12/30 01:33:06;;;;;;;3.17;1.58;;;14.50;99.90;;;;;;5092972;28;20545;-63
2021/12/30 01:35:32;;;;;;;3.20;1.55;;;14.50;99.90;;;;;;5092912;28;20259;-60
2021/12/30 01:38:00;;;;;;;2.30;1.25;;;14.50;99.90;;;;;;5093101;28;20595;-60
2021/12/30 01:40:26;;;;;;;2.40;1.35;;;14.60;99.90;;;;;;5073846;28;20224;-60
2021/12/30 01:42:52;;;;;;;1.20;1.20;;;14.50;99.90;;;;;;5092631;28;20184;-60
2021/12/30 01:45:18;;;;;;;5.00;1.17;;;14.50;99.90;;;;;;5092869;28;20226;-60
2021/12/30 01:47:51;;;;;;;1.40;1.25;;;14.60;99.90;;;;;;5074511;28;20599;-60
2021/12/30 01:50:18;;;;;;;4.60;1.92;;;14.60;99.90;;;;;;5058051;28;20168;-60
2021/12/30 01:52:44;;;;;;;2.40;1.17;;;14.60;99.90;;;;;;5074519;28;20213;-60
2021/12/30 01:55:11;;;;;;;1.77;0.93;;;14.60;99.90;;;;;;5090459;28;20177;-60
2021/12/30 01:57:37;;;;;;;1.92;1.20;;;14.70;99.90;;;;;;5091970;28;20169;-61
2021/12/30 02:00:09;;;;;;;2.90;0.73;;;14.70;99.90;;;;;;5092844;28;20185;-60
2021/12/30 02:02:35;;;;;;;1.17;1.08;;;14.80;99.90;;;;;;5092634;28;20172;-60
2021/12/30 02:05:01;;;;;;;1.00;0.70;;;14.60;99.90;;;;;;5092694;28;20703;-61
2021/12/30 02:07:26;;;;;;;1.30;0.98;;;14.70;99.90;;;;;;5092770;28;20187;-61
2021/12/30 02:09:59;;;;;;;1.50;1.00;;;14.70;99.90;;;;;;5057590;28;20201;-60
2021/12/30 02:12:25;;;;;;;0.65;0.65;;;14.60;99.90;;;;;;5092477;28;20285;-60
2021/12/30 02:14:51;;;;;;;1.48;0.70;;;14.60;99.90;;;;;;5092803;28;20181;-60
2021/12/30 02:17:17;;;;;;;1.08;1.00;;;14.80;99.90;;;;;;5073434;28;20248;-60
2021/12/30 02:19:42;;;;;;;1.50;1.13;;;14.80;99.90;;;;;;5092616;28;20172;-61
2021/12/30 02:22:08;;;;;;;2.00;0.93;;;14.70;99.90;;;;;;5092114;28;20185;-61
2021/12/30 02:24:35;;;;;;;1.10;1.10;;;14.70;99.90;;;;;;5074377;28;20191;-61
2021/12/30 02:27:00;;;;;;;2.50;1.70;;;14.70;99.90;;;;;;5092064;28;20556;-60
2021/12/30 02:29:26;;;;;;;3.00;2.28;;;14.80;99.90;;;;;;5092277;28;20183;-60
2021/12/30 02:31:52;;;;;;;2.17;1.77;;;14.80;99.90;;;;;;5091589;28;20431;-60
2021/12/30 02:34:19;;;;;;;3.42;2.20;;;14.80;99.90;;;;;;5092032;28;20267;-60
2021/12/30 02:36:47;;;;;;;3.33;2.00;;;14.80;99.90;;;;;;5074543;28;20185;-60
2021/12/30 02:39:14;;;;;;;8.98;3.35;;;14.90;99.90;;;;;;5073247;28;20259;-60
2021/12/30 02:41:40;;;;;;;5.22;2.97;;;14.80;99.90;;;;;;5074139;28;20207;-61
2021/12/30 02:44:08;;;;;;;4.97;2.75;;;14.80;99.90;;;;;;5091077;28;20622;-60
2021/12/30 02:46:35;;;;;;;2.67;2.30;;;14.90;99.90;;;;;;5074097;28;20187;-60
2021/12/30 02:49:02;;;;;;;3.67;2.67;;;14.80;99.90;;;;;;5091803;28;20172;-60
2021/12/30 02:51:28;;;;;;;4.20;2.50;;;14.80;99.90;;;;;;5080292;28;20212;-61
2021/12/30 02:53:54;;;;;;;4.70;2.40;;;14.80;99.90;;;;;;5091902;28;20522;-60
2021/12/30 02:56:22;;;;;;;5.05;2.75;;;14.80;99.90;;;;;;5092388;28;20268;-60
2021/12/30 02:58:47;;;;;;;4.00;2.78;;;14.80;99.90;;;;;;5092808;28;20184;-60
2021/12/30 03:01:16;;;;;;;8.80;2.88;;;14.90;99.90;;;;;;5091419;28;20242;-60
2021/12/30 03:03:42;;;;;;;5.03;3.00;;;15.00;99.90;;;;;;5092882;28;20641;-60
2021/12/30 03:06:10;;;;;;;3.70;2.40;;;15.00;99.90;;;;;;5091536;28;20181;-60
2021/12/30 03:08:37;;;;;;;3.55;2.15;;;14.90;99.90;;;;;;5091791;28;20558;-60
2021/12/30 03:11:03;;;;;;;2.80;2.25;;;15.00;99.90;;;;;;5077009;28;20216;-60
2021/12/30 03:13:31;;;;;;;3.67;2.60;;;15.00;99.90;;;;;;5095764;28;20259;-60
2021/12/30 03:16:19;;;;;;;2.70;2.10;;;15.00;99.90;;;;;;5095709;28;20192;-60
2021/12/30 03:18:47;;;;;;;1.73;1.63;;;15.00;99.90;;;;;;5095836;28;20577;-61
2021/12/30 03:21:15;;;;;;;1.92;1.20;;;15.00;99.90;;;;;;5095826;28;20184;-60
2021/12/30 03:23:41;;;;;;;0.82;0.82;;;15.10;99.90;;;;;;5077530;28;20230;-60
2021/12/30 03:26:07;;;;;;;0.68;0.65;;;15.00;99.90;;;;;;5094432;28;20549;-60
2021/12/30 03:28:35;;;;;;;0.85;0.85;;;15.10;99.90;;;;;;5095724;28;20181;-60
2021/12/30 03:31:02;;;;;;;0.90;0.90;;;15.20;99.90;;;;;;5078582;28;20517;-60
2021/12/30 03:33:30;;;;;;;0.52;0.52;;;15.30;99.90;;;;;;5095527;28;20187;-60
2021/12/30 03:35:59;;;;;;;0.50;0.50;;;15.10;99.90;;;;;;5094769;28;20185;-60
2021/12/30 03:38:26;;;;;;;0.60;0.60;;;15.10;99.90;;;;;;5095092;28;20668;-60
2021/12/30 03:40:52;;;;;;;0.70;0.70;;;15.10;99.90;;;;;;5077106;28;20204;-60
2021/12/30 03:43:18;;;;;;;0.63;0.63;;;15.10;99.90;;;;;;5094764;28;20245;-61
2021/12/30 03:45:44;;;;;;;1.20;0.50;;;15.20;99.90;;;;;;5095091;28;20275;-60
2021/12/30 03:48:11;;;;;;;0.40;0.40;;;15.30;99.90;;;;;;5094732;28;20330;-60
2021/12/30 03:50:43;;;;;;;0.47;0.47;;;15.20;99.90;;;;;;5095010;28;20180;-60
2021/12/30 03:53:11;;;;;;;0.40;0.40;;;15.20;99.90;;;;;;5095181;28;20157;-60
2021/12/30 03:55:37;;;;;;;0.30;0.30;;;15.30;99.90;;;;;;5078997;28;20207;-60
2021/12/30 03:58:03;;;;;;;0.35;0.35;;;15.30;99.90;;;;;;5095961;28;20666;-60
2021/12/30 04:00:30;;;;;;;1.00;0.40;;;15.30;99.90;;;;;;5093775;28;20195;-60
2021/12/30 04:02:56;;;;;;;0.30;0.30;;;15.20;99.90;;;;;;5076273;28;20176;-61
2021/12/30 04:05:22;;;;;;;0.80;0.40;;;15.20;99.90;;;;;;5076672;28;20534;-60
2021/12/30 04:07:48;;;;;;;0.45;0.45;;;15.20;99.90;;;;;;5076449;28;20176;-60
2021/12/30 04:10:15;;;;;;;0.88;0.30;;;15.20;99.90;;;;;;5075687;28;20710;-60
2021/12/30 04:12:43;;;;;;;0.50;0.50;;;15.30;99.90;;;;;;5076547;28;20204;-60
2021/12/30 04:15:09;;;;;;;0.40;0.40;;;15.20;99.90;;;;;;5094946;28;20203;-60
2021/12/30 04:17:35;;;;;;;0.55;0.40;;;15.30;99.90;;;;;;5076447;28;20188;-60
2021/12/30 04:20:01;;;;;;;0.40;0.40;;;15.30;99.90;;;;;;5075904;28;20177;-60
2021/12/30 04:22:26;;;;;;;0.28;0.28;;;15.30;99.90;;;;;;5076443;28;20191;-60
2021/12/30 04:24:52;;;;;;;0.47;0.47;;;15.40;99.90;;;;;;5076650;28;20264;-60
2021/12/30 04:27:18;;;;;;;0.38;0.38;;;15.40;99.90;;;;;;5094334;28;20587;-60
2021/12/30 04:29:44;;;;;;;0.50;0.50;;;15.30;99.90;;;;;;5093643;28;20180;-60
2021/12/30 04:32:09;;;;;;;0.45;0.45;;;15.30;99.90;;;;;;5094226;28;20240;-60
2021/12/30 04:34:35;;;;;;;0.40;0.40;;;15.30;99.90;;;;;;5076457;28;20633;-60
2021/12/30 04:37:01;;;;;;;1.35;0.50;;;15.20;99.90;;;;;;5075338;28;20208;-60
2021/12/30 04:39:31;;;;;;;0.70;0.70;;;15.30;99.90;;;;;;5093767;28;20255;-60
2021/12/30 04:42:01;;;;;;;0.68;0.60;;;15.30;99.90;;;;;;5077058;28;20715;-60
2021/12/30 04:44:28;;;;;;;2.30;0.60;;;15.40;99.90;;;;;;5077537;28;20173;-62
2021/12/30 04:46:54;;;;;;;0.50;0.50;;;15.40;99.90;;;;;;5093904;28;20180;-60
2021/12/30 04:49:20;;;;;;;0.80;0.80;;;15.40;99.90;;;;;;5076109;28;20169;-61
2021/12/30 04:51:46;;;;;;;2.42;1.02;;;15.30;99.90;;;;;;5093886;28;20223;-62
2021/12/30 04:54:11;;;;;;;0.70;0.70;;;15.20;99.90;;;;;;5075699;28;20182;-63
2021/12/30 04:56:37;;;;;;;0.77;0.77;;;15.20;99.90;;;;;;5090529;28;20318;-60
2021/12/30 04:59:03;;;;;;;0.70;0.70;;;15.20;99.90;;;;;;5089215;28;20192;-60
2021/12/30 05:01:29;;;;;;;0.82;0.82;;;15.20;99.90;;;;;;5094646;28;20669;-61
2021/12/30 05:03:55;;;;;;;0.73;0.73;;;15.30;99.90;;;;;;5093522;28;20833;-60
2021/12/30 05:06:21;;;;;;;0.68;0.68;;;15.40;99.90;;;;;;5074344;28;20185;-62
2021/12/30 05:08:47;;;;;;;1.20;0.93;;;15.40;99.90;;;;;;5075624;28;20180;-60
2021/12/30 05:11:13;;;;;;;2.42;1.35;;;15.30;99.90;;;;;;5084664;28;20219;-61
2021/12/30 05:13:39;;;;;;;1.42;1.33;;;15.30;99.90;;;;;;5084568;28;20264;-60
2021/12/30 05:16:04;;;;;;;2.13;1.27;;;15.20;99.90;;;;;;5061661;28;20211;-60
2021/12/30 05:18:32;;;;;;;1.73;1.63;;;15.30;99.90;;;;;;5071131;28;20661;-62
2021/12/30 05:21:00;;;;;;;1.88;0.90;;;15.30;99.90;;;;;;5078463;28;20647;-59
2021/12/30 05:23:27;;;;;;;1.33;1.17;;;15.40;99.90;;;;;;5074193;28;20181;-60
2021/12/30 05:25:53;;;;;;;1.85;1.38;;;15.30;99.90;;;;;;5082200;28;20220;-60
2021/12/30 05:28:19;;;;;;;3.53;1.33;;;15.30;99.90;;;;;;5070938;28;20208;-60
2021/12/30 05:30:45;;;;;;;6.60;1.88;;;15.40;99.90;;;;;;5069532;28;20210;-61
2021/12/30 05:33:10;;;;;;;1.15;0.77;;;15.30;99.90;;;;;;5075622;28;20204;-60
2021/12/30 05:35:36;;;;;;;0.80;0.80;;;15.30;99.90;;;;;;5078935;28;20263;-60
2021/12/30 05:38:03;;;;;;;0.95;0.93;;;15.30;99.90;;;;;;5073747;28;20260;-61
2021/12/30 05:40:30;;;;;;;0.75;0.75;;;15.30;99.90;;;;;;5051360;28;20676;-60
2021/12/30 05:42:56;;;;;;;0.85;0.60;;;15.30;99.90;;;;;;5076497;28;20177;-60
2021/12/30 05:45:22;;;;;;;1.75;0.75;;;15.30;99.90;;;;;;5083025;28;20188;-60
2021/12/30 05:47:50;;;;;;;0.50;0.50;;;15.30;99.90;;;;;;5081387;28;20708;-60
2021/12/30 05:50:21;;;;;;;0.93;0.93;;;15.40;99.90;;;;;;5074539;28;20575;-61
2021/12/30 05:52:47;;;;;;;0.90;0.60;;;15.40;99.90;;;;;;5072325;28;20673;-60
2021/12/30 05:55:13;;;;;;;0.85;0.60;;;15.30;99.90;;;;;;5067047;28;20216;-59
2021/12/30 05:57:40;;;;;;;0.40;0.40;;;15.20;99.90;;;;;;5080403;28;20267;-59
2021/12/30 06:00:08;;;;;;;0.70;0.70;;;15.20;99.90;;;;;;5067841;28;20188;-60
2021/12/30 06:02:34;;;;;;;0.80;0.80;;;15.30;99.90;;;;;;5061268;28;20196;-60
2021/12/30 06:05:00;;;;;;;0.85;0.85;;;15.30;99.90;;;;;;5076191;28;20182;-61
2021/12/30 06:07:25;;;;;;;1.17;0.80;;;15.30;99.90;;;;;;5083223;28;20180;-60
2021/12/30 06:09:51;;;;;;;0.65;0.65;;;15.30;99.90;;;;;;5084821;28;20177;-61
2021/12/30 06:12:17;;;;;;;1.15;0.93;;;15.40;99.90;;;;;;5087486;28;20563;-60
2021/12/30 06:14:42;;;;;;;0.93;0.90;;;15.30;99.90;;;;;;5089514;28;20199;-61
2021/12/30 06:17:10;;;;;;;1.08;1.08;;;15.20;99.90;;;;;;5059860;28;20580;-60
2021/12/30 06:19:36;;;;;;;1.40;1.30;;;15.20;99.90;;;;;;5084920;28;20633;-61
2021/12/30 06:22:02;;;;;;;4.63;1.67;;;15.20;99.90;;;;;;5073267;28;20187;-61
2021/12/30 06:24:28;;;;;;;1.75;1.60;;;15.30;99.90;;;;;;5084242;28;20673;-60
2021/12/30 06:26:54;;;;;;;2.45;1.70;;;15.30;99.90;;;;;;5081675;28;20188;-63
2021/12/30 06:29:20;;;;;;;1.50;1.38;;;15.20;99.90;;;;;;5087896;28;20188;-63
2021/12/30 06:31:45;;;;;;;3.15;2.28;;;15.30;99.90;;;;;;5092568;28;20212;-63
2021/12/30 06:34:11;;;;;;;2.08;1.95;;;15.40;99.90;;;;;;5092307;28;20183;-63
2021/12/30 06:36:37;;;;;;;1.73;1.50;;;15.50;99.90;;;;;;5057160;28;20177;-63
2021/12/30 06:39:03;;;;;;;1.92;1.70;;;15.50;99.90;;;;;;5088887;28;20184;-63
2021/12/30 06:41:29;;;;;;;2.00;1.65;;;15.40;99.90;;;;;;5077202;28;20189;-63
2021/12/30 06:43:55;;;;;;;2.03;1.77;;;15.20;99.90;;;;;;5076849;28;20543;-64
2021/12/30 06:46:23;;;;;;;3.95;2.70;;;15.30;99.90;;;;;;5091649;28;20196;-66
2021/12/30 06:48:48;;;;;;;3.47;2.05;;;15.30;99.90;;;;;;5062613;28;20181;-64
2021/12/30 06:51:17;;;;;;;1.92;1.70;;;15.30;99.90;;;;;;5095402;28;20258;-63
2021/12/30 06:53:43;;;;;;;1.90;1.73;;;15.30;99.90;;;;;;5096133;28;20208;-62
2021/12/30 06:56:09;;;;;;;6.85;1.73;;;15.40;99.90;;;;;;5096180;28;20726;-61
2021/12/30 06:58:35;;;;;;;2.05;1.60;;;15.40;99.90;;;;;;5078292;28;20311;-61
2021/12/30 07:01:01;;;;;;;1.60;1.50;;;15.40;99.90;;;;;;5077460;28;20177;-61
2021/12/30 07:03:27;;;;;;;3.25;1.60;;;15.30;99.90;;;;;;5095948;28;20184;-61
2021/12/30 07:05:54;;;;;;;2.70;1.95;;;15.30;99.90;;;;;;5061290;28;20234;-61
2021/12/30 07:08:23;;;;;;;1.77;1.50;;;15.40;99.90;;;;;;5095389;28;20180;-63
2021/12/30 07:10:50;;;;;;;3.45;2.10;;;15.40;99.90;;;;;;5095595;28;20236;-61
2021/12/30 07:13:16;;;;;;;3.63;1.60;;;15.40;99.90;;;;;;5061199;28;20214;-62
2021/12/30 07:15:42;;;;;;;3.20;1.90;;;15.40;99.90;;;;;;5077991;28;20264;-61
2021/12/30 07:18:07;;;;;;;3.42;1.83;;;15.40;99.90;;;;;;5090903;28;20694;-63
2021/12/30 07:20:33;;;;;;;3.17;2.17;;;15.40;99.90;;;;;;5091143;28;20203;-61
2021/12/30 07:22:59;;;;;;;5.97;2.75;;;15.40;99.90;;;;;;5095971;28;20191;-61
2021/12/30 07:25:25;;;;;;;2.30;1.90;;;15.40;99.90;;;;;;5053054;28;20181;-61
2021/12/30 07:27:54;;;;;;;2.28;2.05;;;15.40;99.90;;;;;;5088161;28;20177;-61
2021/12/30 07:30:21;;;;;;;2.25;2.10;;;15.40;99.90;;;;;;5094647;28;20181;-61
2021/12/30 07:32:48;;;;;;;2.08;1.85;;;15.60;99.90;;;;;;5095307;28;20641;-61
2021/12/30 07:35:16;;;;;;;2.00;1.75;;;15.60;99.90;;;;;;5095435;28;20184;-62
2021/12/30 07:37:42;;;;;;;2.42;1.90;;;15.50;99.90;;;;;;5077311;28;20177;-62
2021/12/30 07:40:08;;;;;;;3.05;2.33;;;15.50;99.90;;;;;;5076022;28;20180;-62
2021/12/30 07:42:33;;;;;;;2.45;1.80;;;15.60;99.90;;;;;;5077163;28;20271;-62
2021/12/30 07:44:59;;;;;;;4.07;2.40;;;15.70;99.90;;;;;;5050111;28;20257;-62
2021/12/30 07:47:25;;;;;;;3.28;2.20;;;15.70;99.90;;;;;;5073140;28;20641;-62
2021/12/30 07:49:51;;;;;;;4.00;2.20;;;15.70;99.90;;;;;;5083384;28;20422;-62
2021/12/30 07:52:16;;;;;;;2.10;1.70;;;15.70;99.90;;;;;;5086126;28;20208;-63
2021/12/30 07:54:44;;;;;;;2.53;1.95;;;15.50;99.90;;;;;;5077885;28;20189;-64
2021/12/30 07:57:20;;;;;;;3.13;2.00;;;15.50;99.90;;;;;;5076274;28;20626;-62
2021/12/30 07:59:47;;;;;;;2.20;2.00;;;15.50;99.90;;;;;;5069883;28;20202;-62
2021/12/30 08:02:12;;;;;;;2.55;2.00;;;15.60;99.90;;;;;;5094715;28;20622;-62
2021/12/30 08:04:38;;;;;;;2.15;1.63;;;15.50;99.90;;;;;;5088922;28;21410;-62
2021/12/30 08:07:04;;;;;;;2.20;1.85;;;15.40;99.90;;;;;;5073877;28;20193;-62
2021/12/30 08:09:29;;;;;;;4.93;2.22;;;15.60;99.90;;;;;;5079518;28;20185;-62
2021/12/30 08:11:55;;;;;;;4.97;2.58;;;15.70;99.90;;;;;;5090702;28;20236;-63
2021/12/30 08:14:20;;;;;;;2.30;2.03;;;15.70;99.90;;;;;;5075788;28;20576;-61
2021/12/30 08:16:46;;;;;;;4.00;2.80;;;15.80;99.90;;;;;;5095271;28;20176;-61
2021/12/30 08:19:12;;;;;;;3.80;2.90;;;15.80;99.90;;;;;;5075699;28;20191;-61
2021/12/30 08:21:41;;;;;;;10.35;3.45;;;15.80;99.90;;;;;;5075918;28;20184;-61
2021/12/30 08:24:09;;;;;;;5.03;3.65;;;15.70;99.90;;;;;;5094164;28;20193;-62
2021/12/30 08:26:35;;;;;;;7.40;3.10;;;15.70;99.90;;;;;;5094368;28;20597;-61
2021/12/30 08:29:00;;;;;;;4.45;2.88;;;15.70;99.90;;;;;;5066521;28;20272;-63
2021/12/30 08:31:26;;;;;;;5.97;3.85;;;15.80;99.90;;;;;;5084823;28;20209;-62
2021/12/30 08:33:52;;;;;;;5.45;3.67;;;15.70;99.90;;;;;;5082123;28;20192;-62
2021/12/30 08:36:18;;;;;;;9.00;4.03;;;15.70;99.90;;;;;;5074938;28;20188;-63
2021/12/30 08:38:44;;;;;;;7.38;4.07;;;15.70;99.90;;;;;;5075859;28;20188;-62
2021/12/30 08:41:10;;;;;;;5.57;4.80;;;15.70;99.90;;;;;;5094092;28;20195;-62
2021/12/30 08:43:35;;;;;;;4.35;3.13;;;15.90;99.90;;;;;;5093978;28;20181;-63
2021/12/30 08:46:01;;;;;;;3.53;3.20;;;16.00;99.90;;;;;;5084026;28;20192;-62
2021/12/30 08:48:27;;;;;;;4.55;3.42;;;16.10;99.90;;;;;;5075637;28;20658;-62
2021/12/30 08:50:53;;;;;;;8.93;4.20;;;16.10;99.90;;;;;;5075840;28;20349;-62
2021/12/30 08:53:18;;;;;;;6.88;3.35;;;16.20;99.90;;;;;;5073915;28;20634;-63
2021/12/30 08:55:44;;;;;;;6.38;3.47;;;16.20;99.90;;;;;;5094340;28;20260;-62
2021/12/30 08:58:10;;;;;;;5.45;3.20;;;16.10;99.90;;;;;;5067680;28;20631;-62
2021/12/30 09:00:38;;;;;;;8.20;3.35;;;16.20;99.90;;;;;;5079834;28;20229;-62
2021/12/30 09:03:05;;;;;;;4.20;3.25;;;16.10;99.90;;;;;;5075851;28;20579;-62
2021/12/30 09:05:35;;;;;;;3.67;3.13;;;16.10;99.90;;;;;;5065777;28;20558;-62
2021/12/30 09:08:03;;;;;;;6.90;2.70;;;16.10;99.90;;;;;;5075607;28;20263;-62
2021/12/30 09:10:33;;;;;;;7.18;3.50;;;16.20;99.90;;;;;;5093470;28;20212;-62
2021/12/30 09:12:59;;;;;;;9.65;3.03;;;16.20;99.90;;;;;;5075515;28;20274;-62
2021/12/30 09:15:25;;;;;;;7.53;3.22;;;16.10;99.90;;;;;;5075103;28;20641;-62
2021/12/30 09:17:52;;;;;;;5.20;3.13;;;16.10;99.90;;;;;;5092735;28;20185;-62
2021/12/30 09:20:18;;;;;;;9.60;3.78;;;16.00;99.90;;;;;;5092839;28;20188;-61
2021/12/30 09:22:45;;;;;;;4.70;3.03;;;16.00;99.90;;;;;;5065787;28;20520;-62
2021/12/30 09:25:11;;;;;;;7.15;3.40;;;15.90;99.90;;;;;;5085771;28;20210;-62
2021/12/30 09:27:39;;;;;;;4.65;4.22;;;16.10;99.90;;;;;;5092956;28;20233;-61
2021/12/30 09:30:08;;;;;;;4.38;2.70;;;16.00;99.90;;;;;;5075313;28;20286;-62
2021/12/30 09:32:33;;;;;;;7.50;3.10;;;16.00;99.90;;;;;;5092156;28;20216;-62
2021/12/30 09:34:59;;;;;;;3.58;2.60;;;16.00;99.90;;;;;;5093045;28;20180;-63
2021/12/30 09:37:25;;;;;;;12.35;3.85;;;16.00;99.90;;;;;;5067756;28;20186;-62
2021/12/30 09:39:51;;;;;;;12.15;4.50;;;16.10;99.90;;;;;;5084186;28;20199;-62
2021/12/30 09:42:18;;;;;;;9.52;4.50;;;16.00;99.90;;;;;;5093042;28;20187;-61
2021/12/30 09:44:44;;;;;;;7.30;3.60;;;16.00;99.90;;;;;;5093029;28;20501;-61
2021/12/30 09:47:11;;;;;;;4.57;3.70;;;16.00;99.90;;;;;;5074609;28;20188;-62
2021/12/30 09:49:37;;;;;;;4.93;3.70;;;15.80;99.90;;;;;;5092053;28;20650;-62
2021/12/30 09:52:04;;;;;;;9.27;3.60;;;15.90;99.90;;;;;;5093113;28;20253;-62
2021/12/30 09:54:29;;;;;;;4.05;2.95;;;15.90;99.90;;;;;;5074688;28;20184;-61
2021/12/30 09:56:55;;;;;;;4.72;3.67;;;16.00;99.90;;;;;;5093182;28;20191;-61
2021/12/30 09:59:24;;;;;;;5.18;3.88;;;16.00;99.90;;;;;;5093172;28;20188;-61
2021/12/30 10:01:51;;;;;;;5.30;4.72;;;16.10;99.90;;;;;;5066009;28;20216;-61
2021/12/30 10:04:17;;;;;;;4.38;4.07;;;16.10;99.90;;;;;;5065837;28;20188;-61
2021/12/30 10:06:50;;;;;;;4.88;3.97;;;16.00;99.90;;;;;;5092713;28;20184;-61
2021/12/30 10:09:16;;;;;;;7.97;4.05;;;16.00;99.90;;;;;;5074407;28;20185;-61
2021/12/30 10:11:53;;;;;;;4.85;3.67;;;16.00;99.90;;;;;;5073397;28;20236;-61
2021/12/30 10:14:34;;;;;;;5.28;4.22;;;16.00;99.90;;;;;;5092504;28;20180;-62
2021/12/30 10:17:25;;;;;;;5.63;4.10;;;16.00;99.90;;;;;;5091245;28;20192;-61
2021/12/30 10:19:53;;;;;;;4.57;3.30;;;16.10;99.90;;;;;;5091403;28;20620;-62
2021/12/30 10:22:21;;;;;;;5.28;3.47;;;16.30;99.90;;;;;;5065561;28;20706;-61
2021/12/30 10:24:48;;;;;;;4.32;3.47;;;16.40;99.90;;;;;;5080575;28;20187;-62
2021/12/30 10:27:33;;;;;;;5.13;3.05;;;16.40;99.90;;;;;;5092299;28;20184;-62
2021/12/30 10:29:59;;;;;;;4.22;2.92;;;16.50;99.90;;;;;;5092000;28;20177;-62
2021/12/30 10:32:29;;;;;;;6.80;3.33;;;16.50;99.90;;;;;;5092442;28;20211;-61
2021/12/30 10:35:14;;;;;;;11.02;4.38;;;16.60;99.90;;;;;;5058980;28;20188;-61
2021/12/30 10:37:45;;;;;;;3.42;3.13;;;16.50;99.90;;;;;;5086480;28;20188;-63
2021/12/30 10:40:32;;;;;;;10.68;4.97;;;16.30;99.90;;;;;;5077672;28;20537;-64
2021/12/30 10:43:30;;;;;;;8.27;3.55;;;16.20;99.90;;;;;;5092534;28;20535;-62
2021/12/30 10:46:17;;;;;;;4.18;3.67;;;16.30;99.90;;;;;;5092248;28;20175;-63
2021/12/30 10:49:05;;;;;;;7.25;3.72;;;16.40;99.90;;;;;;5074138;28;20580;-61
2021/12/30 10:51:49;;;;;;;3.95;3.55;;;16.40;99.90;;;;;;5092168;28;20200;-62
2021/12/30 10:54:27;;;;;;;5.43;3.70;;;16.40;99.90;;;;;;5092287;28;20764;-62
2021/12/30 10:56:57;;;;;;;6.15;4.25;;;16.50;99.90;;;;;;5091285;28;20169;-61
2021/12/30 10:59:30;;;;;;;4.95;3.75;;;16.50;99.90;;;;;;5091935;28;20267;-62
2021/12/30 11:02:08;;;;;;;5.25;3.80;;;16.70;99.90;;;;;;5092061;28;20180;-64
2021/12/30 11:04:47;;;;;;;6.45;3.42;;;16.70;99.90;;;;;;5075996;28;20165;-64
2021/12/30 11:07:22;;;;;;;7.03;3.95;;;16.80;99.90;;;;;;5071034;28;20246;-64
2021/12/30 11:09:52;;;;;;;5.93;3.25;;;16.80;99.90;;;;;;5077554;28;20672;-62
2021/12/30 11:12:28;;;;;;;5.82;4.15;;;16.80;99.90;;;;;;5091822;28;20238;-63
2021/12/30 11:14:55;;;;;;;4.72;3.80;;;16.80;99.90;;;;;;5092339;28;20176;-63
2021/12/30 11:17:29;;;;;;;7.18;4.13;;;16.90;99.90;;;;;;5091527;28;20596;-64
2021/12/30 11:20:09;;;;;;;4.88;3.50;;;17.00;99.90;;;;;;5091917;28;20164;-63
2021/12/30 11:22:38;;;;;;;8.18;3.67;;;16.80;99.90;;;;;;5092070;28;20216;-63
2021/12/30 11:25:07;;;;;;;5.18;3.55;;;16.80;99.90;;;;;;5091857;28;20165;-61
2021/12/30 11:27:34;;;;;;;9.90;4.32;;;16.70;99.90;;;;;;5091492;28;20188;-63
2021/12/30 11:30:07;;;;;;;5.35;3.80;;;16.70;99.90;;;;;;5055848;28;20649;-61
2021/12/30 11:32:34;;;;;;;7.80;4.05;;;16.50;99.90;;;;;;5095489;28;20212;-63
2021/12/30 11:35:03;;;;;;;6.72;3.55;;;16.40;99.90;;;;;;5095428;28;20759;-63
2021/12/30 11:37:29;;;;;;;5.70;4.18;;;16.40;99.90;;;;;;5095202;28;20199;-63
2021/12/30 11:39:58;;;;;;;6.85;4.07;;;16.30;99.90;;;;;;5095219;28;20177;-64
2021/12/30 11:42:28;;;;;;;4.47;3.72;;;16.30;99.90;;;;;;5075952;28;20177;-63
2021/12/30 11:44:56;;;;;;;6.00;3.95;;;16.40;99.90;;;;;;5093519;28;20181;-63
2021/12/30 11:47:34;;;;;;;5.65;3.53;;;16.40;99.90;;;;;;5094960;28;20579;-64
2021/12/30 11:50:08;;;;;;;4.38;3.17;;;16.50;99.90;;;;;;5095304;28;20180;-61
2021/12/30 11:52:52;;;;;;;4.38;3.72;;;16.50;99.90;;;;;;5076947;28;20212;-63
2021/12/30 11:55:48;;;;;;;6.28;3.95;;;16.50;99.90;;;;;;5076638;28;20234;-63
2021/12/30 11:58:34;;;;;;;5.55;4.57;;;16.50;99.90;;;;;;5076863;28;20184;-63
2021/12/30 12:01:12;;;;;;;4.28;3.75;;;16.40;99.90;;;;;;5095203;28;20187;-63
2021/12/30 12:03:46;;;;;;;6.97;3.13;;;16.40;99.90;;;;;;5094249;28;20185;-63
2021/12/30 12:06:23;;;;;;;6.45;3.92;;;16.60;99.90;;;;;;5093814;28;20176;-63
2021/12/30 12:08:50;;;;;;;11.07;4.10;;;16.80;99.90;;;;;;5095206;28;20233;-63
2021/12/30 12:11:22;;;;;;;9.85;3.58;;;16.90;99.90;;;;;;5094661;28;20215;-63
2021/12/30 12:13:49;;;;;;;5.10;3.83;;;16.90;99.90;;;;;;5094301;28;20649;-63
2021/12/30 12:16:36;;;;;;;8.98;4.10;;;17.00;99.90;;;;;;5075326;28;20212;-63
2021/12/30 12:19:07;;;;;;;4.63;3.33;;;17.00;99.90;;;;;;5094395;28;20549;-62
2021/12/30 12:21:43;;;;;;;3.97;2.97;;;17.10;99.90;;;;;;5094672;28;20184;-63
2021/12/30 12:24:20;;;;;;;11.88;4.90;;;16.90;99.90;;;;;;5093778;28;20180;-63
2021/12/30 12:26:50;;;;;;;5.93;4.05;;;17.00;99.90;;;;;;5076170;28;20633;-63
2021/12/30 12:29:29;;;;;;;13.05;4.20;;;16.90;99.90;;;;;;5094359;28;20196;-63
2021/12/30 12:32:03;;;;;;;7.60;2.90;;;16.80;99.90;;;;;;5094548;28;20212;-63
2021/12/30 12:34:40;;;;;;;7.10;3.33;;;16.90;99.90;;;;;;5093659;28;20237;-63
2021/12/30 12:37:40;;;;;;;7.32;3.63;;;17.00;99.90;;;;;;5094554;28;20250;-61
2021/12/30 12:40:23;;;;;;;4.00;3.55;;;16.90;99.90;;;;;;5094229;28;20180;-63
2021/12/30 12:42:49;;;;;;;6.75;3.42;;;16.80;99.90;;;;;;5083456;28;20184;-63
2021/12/30 12:45:19;;;;;;;5.97;3.85;;;16.80;99.90;;;;;;5083830;28;20183;-63
2021/12/30 12:47:46;;;;;;;4.38;3.35;;;16.60;99.90;;;;;;5093078;28;20524;-63
2021/12/30 12:50:12;;;;;;;8.60;3.78;;;16.60;99.90;;;;;;5014536;28;20198;-63
2021/12/30 12:52:43;;;;;;;7.05;3.40;;;16.50;99.90;;;;;;5014681;28;20309;-63